Thunder radar more information blitzortung!


Radar de pluja more information rain snow radar


Visita la nostra xarxa de llocs de meteo:

Template documentation
and downloads

And another site



No particular awareness of the weather is required.    There are no Weather-warnings

Pagina Historial Weather Underground text

Diari Resum Agost 9, 2017 Unitats:  Imperial    Mètric   Tant
« Previous Dia
SegĂźent Dia »
Diari Setmana Mensual Anual Personalitzada
  Maxima: Minima: Media:
Temperatura: 81.9 °F 59 °F 70.9 °F
Punt de rosada: 60.4 °F 50.5 °F 57 °F
Humitat: 90 % 46 % 64 %
Wind Speed: 9.2 mph 0 mph 3.4 mph
RĂ fegues de vent: 9.2 mph - -
Vent:- - South
Pression baro: 30.1 in 29.9 in -
Precipitacions: 0.31 in    
Historical Graphs
 
 
Dades de taula per Agost 9, 2017
Temps Temperatura Punt de rosada Pression baro Vent Wind Speed RĂ fegues de vent Humitat Rainfall Rate (Hourly)
00:00 66.9 °F 56.5 °F 29.9 in Calm     69 % 0 in
00:02 70.9 °F 59.4 °F 30 in Calm     67 % 0 in
00:07 70.7 °F 59.2 °F 30 in Calm     67 % 0 in
00:10 66.6 °F 56.5 °F 29.9 in Calm   1 mph 70 % 0 in
00:20 66.6 °F 56.1 °F 29.9 in Calm   1 mph 69 % 0 in
00:30 66.6 °F 56.1 °F 29.9 in SW 1 mph 1 mph 69 % 0 in
00:40 66.7 °F 56.7 °F 29.9 in Calm   2 mph 70 % 0 in
00:50 66.6 °F 56.5 °F 29.9 in Calm   1 mph 70 % 0 in
01:00 66.6 °F 56.5 °F 29.9 in WSW 1 mph 2 mph 70 % 0 in
01:10 66.9 °F 56.8 °F 29.9 in Calm   2 mph 70 % 0 in
01:20 67.1 °F 55.8 °F 30 in North 3 mph 4 mph 67 % 0 in
01:30 66.7 °F 54.1 °F 30 in NNE 1 mph 3 mph 64 % 0 in
01:40 66.4 °F 53.4 °F 30 in NNE 1 mph 3 mph 63 % 0 in
01:50 66.2 °F 53.2 °F 30 in NNE 1 mph 2 mph 63 % 0 in
02:00 65.8 °F 53.2 °F 30 in NNE 1 mph 2 mph 64 % 0 in
02:10 65.7 °F 53.1 °F 29.9 in Calm   1 mph 64 % 0 in
02:20 65.3 °F 52.9 °F 30 in Calm     64 % 0 in
02:30 66 °F 53.4 °F 30 in Calm   2 mph 64 % 0 in
02:40 66.2 °F 52.9 °F 30 in NE 1 mph 1 mph 62 % 0 in
02:50 65.8 °F 52.5 °F 30 in NE 1 mph 2 mph 62 % 0 in
03:00 66.2 °F 52.3 °F 30 in NNE 1 mph 2 mph 61 % 0 in
03:10 67.6 °F 53.2 °F 30 in NNE 1 mph 2 mph 60 % 0 in
03:20 67.6 °F 52.9 °F 30 in NNE 1 mph 2 mph 59 % 0 in
03:30 68.4 °F 52.5 °F 30 in NNE 1 mph 2 mph 57 % 0 in
03:40 69.1 °F 52.7 °F 30 in NNE 2 mph 3 mph 56 % 0 in
03:50 68.9 °F 52.2 °F 30 in NE 3 mph 4 mph 55 % 0 in
04:00 70.3 °F 52.3 °F 30 in NE 1 mph 4 mph 53 % 0 in
04:10 70.9 °F 52.9 °F 30 in NE 1 mph 2 mph 53 % 0 in
04:20 71.2 °F 52.7 °F 30 in NNE 2 mph 2 mph 52 % 0 in
04:30 70.2 °F 50.5 °F 30 in ENE 2 mph 4 mph 50 % 0 in
04:40 72.5 °F 53.2 °F 30 in ENE 1 mph 3 mph 51 % 0 in
04:50 72.3 °F 52.5 °F 30 in Calm   4 mph 50 % 0 in
05:00 73.2 °F 52.9 °F 30 in ENE 2 mph 3 mph 49 % 0 in
05:10 73 °F 52.7 °F 30 in ESE 1 mph 3 mph 49 % 0 in
05:20 73 °F 52.7 °F 30 in NW 1 mph 2 mph 49 % 0 in
10:29 75.6 °F 54.5 °F 30 in NE 2.3 mph 3.1 mph 48 % 0 in
10:30 75.6 °F 54.5 °F 30 in NE 4.6 mph 4.6 mph 48 % 0 in
10:33 74.5 °F 52.9 °F 30 in East 3.5 mph 3.5 mph 47 % 0 in
10:38 75.9 °F 54.9 °F 30 in South 3.5 mph 3.5 mph 48 % 0 in
10:43 75.7 °F 54.7 °F 30 in SW 5.8 mph 5.8 mph 48 % 0 in
10:44 75.4 °F 54.3 °F 30 in WSW 4.6 mph 4.6 mph 48 % 0 in
10:49 75.4 °F 54.3 °F 30 in WSW 3.3 mph 3.3 mph 48 % 0 in
10:54 75.6 °F 54 °F 30 in SSW 2.3 mph 2.3 mph 47 % 0 in
10:59 75.7 °F 54.7 °F 30 in West 1.2 mph   48 % 0 in
11:04 75.9 °F 54.9 °F 30 in West 4.6 mph 4.6 mph 48 % 0 in
11:09 75.6 °F 54.5 °F 30 in ENE 1.4 mph 1.4 mph 48 % 0 in
11:14 75.7 °F 54.7 °F 30 in SW 1.2 mph 1.2 mph 48 % 0 in
11:19 75.7 °F 54.7 °F 30 in NNW 2.3 mph 2.3 mph 48 % 0 in
11:24 75.6 °F 54.5 °F 30 in NE 2.4 mph 2.4 mph 48 % 0 in
11:29 75.6 °F 54 °F 30 in SSW 2.3 mph 2.3 mph 47 % 0 in
11:34 76.3 °F 55.8 °F 30 in SW 5.8 mph 5.8 mph 49 % 0 in
11:39 76.8 °F 56.1 °F 30 in SSE 5.8 mph 5.8 mph 49 % 0 in
11:44 76.5 °F 55.9 °F 30 in WSW 3.5 mph 3.5 mph 49 % 0 in
11:49 76.8 °F 56.1 °F 30 in SSW 5.8 mph 5.8 mph 49 % 0 in
11:54 77.4 °F 56.7 °F 30 in West 4.6 mph 4.6 mph 49 % 0 in
11:59 77.2 °F 56.5 °F 30 in SW 5.8 mph 5.8 mph 49 % 0 in
12:04 77.7 °F 56.5 °F 30 in South 6.2 mph 6.2 mph 48 % 0 in
12:09 77.2 °F 55.9 °F 30 in SSW 5.8 mph 5.8 mph 48 % 0 in
12:14 77.4 °F 56.7 °F 30 in WSW 4.6 mph 4.6 mph 49 % 0 in
12:19 77.4 °F 56.1 °F 30 in West 4.6 mph 4.6 mph 48 % 0 in
12:24 78.8 °F 57.4 °F 30 in WNW 5.8 mph 5.8 mph 48 % 0 in
12:29 79.7 °F 58.3 °F 30 in SW 4.6 mph 4.6 mph 48 % 0 in
12:34 79.3 °F 57.9 °F 30 in WSW 5.8 mph 5.8 mph 48 % 0 in
12:39 80.4 °F 58.8 °F 30 in SSW 5.8 mph 5.8 mph 48 % 0 in
12:44 80.4 °F 58.3 °F 30 in SSW 5.8 mph 5.8 mph 47 % 0 in
12:49 81.3 °F 59.2 °F 29.9 in West 5.4 mph 5.4 mph 47 % 0 in
12:54 80.8 °F 58.1 °F 29.9 in SW 5.8 mph 5.8 mph 46 % 0 in
12:59 80.4 °F 58.3 °F 29.9 in SSW 4.6 mph 4.6 mph 47 % 0 in
13:04 79.9 °F 58.5 °F 29.9 in WSW 7.4 mph 7.4 mph 48 % 0 in
13:09 79.5 °F 58.1 °F 29.9 in WSW 6.4 mph 6.4 mph 48 % 0 in
13:14 79 °F 57.6 °F 29.9 in SW 6.9 mph 6.9 mph 48 % 0 in
13:19 78.8 °F 57.4 °F 29.9 in SSW 3.5 mph 3.8 mph 48 % 0 in
13:24 78.8 °F 57.4 °F 29.9 in WSW 3.8 mph 3.8 mph 48 % 0 in
13:29 78.6 °F 57.9 °F 29.9 in SW 5.8 mph 5.8 mph 49 % 0 in
13:34 79 °F 58.3 °F 29.9 in SW 3.6 mph 3.6 mph 49 % 0 in
13:39 79.5 °F 58.6 °F 29.9 in SSW 3.5 mph 3.5 mph 49 % 0 in
13:44 79.2 °F 58.5 °F 29.9 in SSW 8.7 mph 8.7 mph 49 % 0 in
13:49 80.8 °F 59.4 °F 29.9 in SW 6.9 mph 6.9 mph 48 % 0 in
13:54 80.2 °F 59.4 °F 29.9 in WSW 7.6 mph 7.6 mph 49 % 0 in
13:59 80.4 °F 59.5 °F 29.9 in WSW 9.2 mph 9.2 mph 49 % 0 in
14:04 79.9 °F 59 °F 30 in SW 9.2 mph 9.2 mph 49 % 0 in
14:09 80.2 °F 59.4 °F 30 in SW 9 mph 9 mph 49 % 0 in
14:14 79.7 °F 58.8 °F 30 in WSW 6 mph 6 mph 49 % 0 in
14:19 80.2 °F 59.4 °F 29.9 in SSW 5.8 mph 5.8 mph 49 % 0 in
14:24 80.2 °F 59.4 °F 29.9 in WNW 9.2 mph 9.2 mph 49 % 0 in
14:29 80.2 °F 59.4 °F 29.9 in SSE 6.9 mph 6.9 mph 49 % 0 in
14:34 80.6 °F 59.2 °F 29.9 in SW 2.6 mph 2.6 mph 48 % 0 in
14:39 80.6 °F 59.2 °F 29.9 in WSW 2.3 mph 2.3 mph 48 % 0 in
14:44 81 °F 59.4 °F 29.9 in SSW 5.8 mph 5.8 mph 48 % 0 in
14:49 81.5 °F 60.4 °F 29.9 in SW 4.6 mph 4.6 mph 49 % 0 in
14:54 81.3 °F 59.7 °F 29.9 in West 4.6 mph 4.6 mph 48 % 0 in
14:59 81 °F 59.4 °F 29.9 in SW 7.6 mph 7.6 mph 48 % 0 in
15:04 81.3 °F 59.7 °F 29.9 in SSE 3.5 mph 3.5 mph 48 % 0 in
15:09 80.2 °F 59.4 °F 29.9 in SW 8.1 mph 8.1 mph 49 % 0 in
15:14 79.9 °F 59 °F 29.9 in SSW 5.8 mph 5.8 mph 49 % 0 in
15:19 79.9 °F 59 °F 29.9 in SW 8.1 mph 8.1 mph 49 % 0 in
15:24 79.9 °F 59 °F 29.9 in SW 6.9 mph 6.9 mph 49 % 0 in
15:29 80.4 °F 59.5 °F 29.9 in West 6.9 mph 6.9 mph 49 % 0 in
15:34 80.1 °F 59.2 °F 30 in SW 8.1 mph 8.1 mph 49 % 0 in
15:39 81.1 °F 59.5 °F 30 in South 6.9 mph 6.9 mph 48 % 0 in
15:44 81.9 °F 60.3 °F 30 in WSW 8.1 mph 8.1 mph 48 % 0 in
15:49 81.1 °F 59.5 °F 29.9 in SW 8.7 mph 8.7 mph 48 % 0 in
15:54 81.1 °F 59.5 °F 29.9 in NNE 6.4 mph 6.4 mph 48 % 0 in
15:59 81.3 °F 59.7 °F 29.9 in SW 3.5 mph 3.5 mph 48 % 0 in
16:04 81.3 °F 59.7 °F 30 in SSW 8.1 mph 8.1 mph 48 % 0 in
16:09 81.5 °F 59.4 °F 30 in SW 4.6 mph 4.6 mph 47 % 0 in
16:14 80.4 °F 59.5 °F 30 in SSW 5.8 mph 5.8 mph 49 % 0 in
16:19 81 °F 59.4 °F 29.9 in WSW 3.8 mph 3.8 mph 48 % 0 in
16:24 81.1 °F 59.5 °F 29.9 in SSE 2.9 mph 2.9 mph 48 % 0 in
16:29 80.8 °F 59.4 °F 29.9 in West 3.5 mph 3.5 mph 48 % 0 in
16:34 80.6 °F 59.2 °F 29.9 in SW 5.8 mph 5.8 mph 48 % 0 in
16:39 79.7 °F 58.8 °F 29.9 in SW 6.9 mph 6.9 mph 49 % 0 in
16:44 80.1 °F 59.2 °F 29.9 in SSE 4.6 mph 4.6 mph 49 % 0 in
16:49 78.6 °F 57.9 °F 29.9 in SSW 4.6 mph 4.6 mph 49 % 0 in
16:54 78.8 °F 57.9 °F 29.9 in SSE 3.5 mph 3.5 mph 49 % 0 in
16:59 77.9 °F 57.7 °F 29.9 in ESE 5.8 mph 5.8 mph 50 % 0 in
17:04 77.7 °F 57.6 °F 29.9 in SSE 4 mph 4 mph 50 % 0 in
17:09 76.8 °F 57.4 °F 29.9 in South 8.1 mph 8.1 mph 51 % 0 in
17:19 76.3 °F 57.4 °F 29.9 in ESE 3.5 mph 3.5 mph 52 % 0 in
17:24 76.3 °F 57.4 °F 29.9 in SSE 4.6 mph 4.6 mph 52 % 0 in
17:29 75.9 °F 57 °F 29.9 in ESE 2.3 mph 2.3 mph 52 % 0 in
17:34 75.6 °F 56.7 °F 30 in ESE 2.3 mph 2.3 mph 52 % 0 in
17:39 75 °F 56.1 °F 30 in ESE 6.9 mph 6.9 mph 52 % 0 in
17:44 74.8 °F 55.9 °F 30 in ESE 5.8 mph 5.8 mph 52 % 0 in
17:49 74.7 °F 56.5 °F 30 in North 5.8 mph 5.8 mph 53 % 0 in
17:54 74.7 °F 56.5 °F 30 in ENE 5.8 mph 5.8 mph 53 % 0 in
17:59 74.3 °F 56.1 °F 30 in NE 6.9 mph 6.9 mph 53 % 0 in
18:04 74.1 °F 55.9 °F 30 in North 9.2 mph 9.2 mph 53 % 0 in
18:09 73.6 °F 56.5 °F 30 in ESE 8.1 mph 8.1 mph 55 % 0 in
18:14 72.7 °F 56.7 °F 30 in East 9.2 mph 9.2 mph 57 % 0 in
18:19 72 °F 56.5 °F 30 in East 6.9 mph 6.9 mph 58 % 0 in
18:24 71.8 °F 56.7 °F 30 in ESE 8.5 mph 8.5 mph 59 % 0 in
18:29 71.8 °F 57 °F 30 in SE 6.2 mph 6.2 mph 60 % 0 in
18:34 71.4 °F 57.4 °F 29.9 in ESE 5.8 mph 5.8 mph 61 % 0 in
18:35 71.4 °F 57.4 °F 29.9 in SE 4.7 mph 4.7 mph 61 % 0 in
18:40 71.6 °F 56.5 °F 29.9 in ESE 9.2 mph 9.2 mph 59 % 0 in
18:45 71.6 °F 56.5 °F 30 in ENE 8.5 mph 8.5 mph 59 % 0 in
18:50 71.6 °F 55.9 °F 30 in ESE 9.2 mph 9.2 mph 58 % 0 in
18:55 71.1 °F 56.8 °F 30 in East 4.6 mph 4.6 mph 61 % 0 in
19:00 70.2 °F 57 °F 30 in WNW 4.6 mph 4.6 mph 63 % 0 in
19:05 68.5 °F 56.7 °F 30 in SW 5.8 mph 5.8 mph 66 % 0.04 in
19:10 68 °F 57 °F 30 in WSW 4.6 mph 4.6 mph 68 % 0.04 in
19:15 67.5 °F 58.1 °F 30 in North 2.3 mph 2.3 mph 72 % 0.04 in
19:20 67.3 °F 58.3 °F 30 in West 2.3 mph 2.3 mph 73 % 0.04 in
19:25 67.3 °F 58.6 °F 30 in NNW 2.3 mph 2.3 mph 74 % 0.04 in
19:30 66.7 °F 58.3 °F 30 in NW 2.3 mph 2.3 mph 74 % 0.04 in
19:35 66.6 °F 58.5 °F 30 in WSW 1.2 mph 1.6 mph 75 % 0.04 in
19:40 66.2 °F 57.9 °F 30 in NW 2.4 mph 2.4 mph 75 % 0.04 in
19:45 66 °F 58.6 °F 30 in WNW 3.5 mph 3.5 mph 77 % 0.04 in
19:50 65.8 °F 58.8 °F 30 in West 1.2 mph 1.2 mph 78 % 0.04 in
19:55 65.7 °F 58.6 °F 30 in North 3.5 mph 3.5 mph 78 % 0.04 in
20:00 65.7 °F 59 °F 30 in NNW 1.2 mph   79 % 0.04 in
20:05 65.7 °F 59 °F 30 in ESE 1.4 mph 1.4 mph 79 % 0 in
20:10 65.7 °F 59 °F 30 in WNW 1.2 mph 1.2 mph 79 % 0 in
20:15 65.5 °F 58.8 °F 30 in West 1.2 mph 1.2 mph 79 % 0 in
20:20 65.5 °F 59.5 °F 30 in Calm     81 % 0 in
20:25 65.3 °F 59.4 °F 30 in Calm     81 % 0 in
20:26 65.3 °F 59.4 °F 30 in Calm     81 % 0 in
20:30 61.5 °F 58.3 °F 30.1 in Calm     89 % 0 in
20:31 65.3 °F 59.4 °F 30 in Calm     81 % 0 in
20:36 65.1 °F 59.2 °F 30 in Calm     81 % 0 in
20:40 61.7 °F 58.6 °F 30.1 in NE 2 mph 3 mph 90 % 0 in
20:41 64.8 °F 58.8 °F 30 in SW 1.6 mph   81 % 0 in
20:46 64.8 °F 58.8 °F 30 in WSW 1.2 mph   81 % 0 in
20:50 61.5 °F 58.3 °F 30.1 in East 2 mph 3 mph 89 % 0 in
20:51 64.9 °F 59 °F 30 in WSW 2.4 mph   81 % 0 in
20:56 65.1 °F 59.2 °F 30 in SW 1.2 mph   81 % 0 in
21:00 61.3 °F 57.7 °F 30.1 in SW 2 mph 3 mph 88 % 0 in
21:01 65.3 °F 59.4 °F 30 in West 2.3 mph 2.3 mph 81 % 0 in
21:06 65.3 °F 60.1 °F 30 in WSW 1.2 mph   83 % 0 in
21:10 61.3 °F 58.1 °F 30.1 in Calm   2 mph 89 % 0 in
21:11 65.1 °F 59.5 °F 30 in SW 2.3 mph 2.3 mph 82 % 0 in
21:16 65.3 °F 60.1 °F 30 in NE 3.1 mph 3.1 mph 83 % 0 in
21:20 61.2 °F 57.6 °F 30.1 in West 2 mph 2 mph 88 % 0 in
21:21 65.1 °F 59.7 °F 30 in WNW 2.3 mph 2.3 mph 83 % 0 in
21:26 64.9 °F 59.7 °F 30 in ENE 2.4 mph 2.4 mph 83 % 0 in
21:30 61 °F 57.4 °F 30.1 in WSW 1 mph 3 mph 88 % 0 in
21:31 64.4 °F 58.8 °F 30 in NNE 2.3 mph 2.3 mph 82 % 0 in
21:36 64.6 °F 59.4 °F 30 in West 1.6 mph 1.6 mph 83 % 0 in
21:40 60.8 °F 57.2 °F 30.1 in WSW 1 mph 3 mph 88 % 0 in
21:41 64.8 °F 59.5 °F 30 in SW 2.3 mph 2.3 mph 83 % 0 in
21:46 64.2 °F 58.8 °F 30.1 in SW 2.3 mph 2.3 mph 83 % 0 in
21:50 60.8 °F 57.6 °F 30.1 in Calm   2 mph 89 % 0 in
21:51 63.7 °F 58.5 °F 30.1 in WSW 2.3 mph 2.3 mph 83 % 0 in
21:56 63.7 °F 58.5 °F 30.1 in SW 2.3 mph 2.3 mph 83 % 0 in
22:00 60.4 °F 56.8 °F 30.1 in SW 2 mph 3 mph 88 % 0 in
22:01 63.5 °F 58.3 °F 30.1 in SW 2.3 mph 2.3 mph 83 % 0 in
22:06 63.1 °F 57.9 °F 30.1 in WSW 2.3 mph 2.3 mph 83 % 0 in
22:10 60.1 °F 56.1 °F 30.1 in WSW 2 mph 4 mph 87 % 0 in
22:11 63 °F 57.7 °F 30.1 in WSW 1.2 mph   83 % 0 in
22:16 62.6 °F 57 °F 30.1 in SSW 2.3 mph 2.3 mph 82 % 0 in
22:20 59.7 °F 55.6 °F 30.1 in WSW 3 mph 4 mph 86 % 0 in
22:21 62.4 °F 57.6 °F 30.1 in WSW 2.3 mph 2.3 mph 84 % 0 in
22:26 62.2 °F 57.4 °F 30.1 in Calm     84 % 0 in
22:30 59.5 °F 55.2 °F 30.1 in West 1 mph 2 mph 86 % 0 in
22:31 62.1 °F 56.8 °F 30.1 in SW 2.3 mph 2.4 mph 83 % 0 in
22:36 62.1 °F 57.2 °F 30.1 in SW 2.3 mph   84 % 0 in
22:40 59.5 °F 55.8 °F 30.1 in West 1 mph 3 mph 87 % 0 in
22:41 61.9 °F 56.7 °F 30.1 in SW 3.5 mph 3.5 mph 83 % 0 in
22:46 62.1 °F 57.6 °F 30.1 in Calm     85 % 0 in
22:50 59.5 °F 55.2 °F 30.1 in West 1 mph 2 mph 86 % 0 in
22:51 62.1 °F 57.6 °F 30.1 in Calm     85 % 0 in
22:56 61.7 °F 57 °F 30.1 in Calm     85 % 0 in
23:00 59.5 °F 55.2 °F 30.1 in WSW 2 mph 3 mph 86 % 0 in
23:01 61.7 °F 57 °F 30.1 in WSW 1.4 mph 1.4 mph 85 % 0 in
23:06 61.7 °F 57 °F 30.1 in SW 2.3 mph 2.3 mph 85 % 0 in
23:10 59.4 °F 54.9 °F 30.1 in Calm   3 mph 85 % 0 in
23:11 61.7 °F 57 °F 30.1 in Calm     85 % 0 in
23:16 61.7 °F 57.6 °F 30.1 in WNW 2.3 mph 2.3 mph 86 % 0 in
23:20 59.5 °F 55 °F 30.1 in Calm   1 mph 85 % 0 in
23:21 61.7 °F 57.6 °F 30.1 in SW 0.9 mph 0.9 mph 86 % 0 in
23:26 61.7 °F 57.6 °F 30.1 in WSW 1.2 mph   86 % 0.28 in
23:30 59.4 °F 54.9 °F 30.1 in SW 1 mph 2 mph 85 % 0 in
23:31 61.7 °F 57.7 °F 30.1 in Calm     87 % 0.28 in
23:36 61.7 °F 57.7 °F 30.1 in Calm     87 % 0.28 in
23:40 59 °F 54.1 °F 30.1 in SW 3 mph 3 mph 84 % 0 in
23:41 61.5 °F 57.6 °F 30.1 in WSW 1.2 mph   87 % 0.28 in
23:46 61.5 °F 57.6 °F 30.1 in Calm     87 % 0.28 in
23:50 59 °F 54.1 °F 30.1 in WSW 1 mph 2 mph 84 % 0 in
23:51 61.5 °F 57.6 °F 30.1 in Calm     87 % 0.28 in
Meteo Sesrovires
Elogis d' Weather Underground - 3.75 mb

Guio original per  Jim McMurry - jmcmurry@mwt.net Adaptat per a la plantilla per  Wim van der Kuil - Leuven-Template.eu

Trobareu la nostra informacio del temps tambe a:

Weather Underground

AWEKAS